sensor_id;sensor_type;location;lat;lon;timestamp;P1;durP1;ratioP1;P2;durP2;ratioP2
18072;SDS011;9161;47.348;9.648;2023-02-11T00:02:03;30.60;;;12.17;;
18072;SDS011;9161;47.348;9.648;2023-02-11T00:07:05;36.13;;;12.63;;
18072;SDS011;9161;47.348;9.648;2023-02-11T00:12:07;35.40;;;13.10;;
18072;SDS011;9161;47.348;9.648;2023-02-11T00:17:11;31.77;;;13.20;;
18072;SDS011;9161;47.348;9.648;2023-02-11T00:22:13;32.90;;;12.70;;
18072;SDS011;9161;47.348;9.648;2023-02-11T00:27:15;32.00;;;11.97;;
18072;SDS011;9161;47.348;9.648;2023-02-11T00:32:20;28.80;;;11.80;;
18072;SDS011;9161;47.348;9.648;2023-02-11T00:37:22;24.23;;;11.60;;
18072;SDS011;9161;47.348;9.648;2023-02-11T00:42:24;30.17;;;10.90;;
18072;SDS011;9161;47.348;9.648;2023-02-11T00:47:27;26.83;;;11.37;;
18072;SDS011;9161;47.348;9.648;2023-02-11T00:52:30;26.87;;;10.37;;
18072;SDS011;9161;47.348;9.648;2023-02-11T00:57:32;21.77;;;10.07;;
18072;SDS011;9161;47.348;9.648;2023-02-11T01:02:36;25.67;;;10.13;;
18072;SDS011;9161;47.348;9.648;2023-02-11T01:07:39;24.37;;;10.63;;
18072;SDS011;9161;47.348;9.648;2023-02-11T01:12:41;22.23;;;10.10;;
18072;SDS011;9161;47.348;9.648;2023-02-11T01:17:44;25.40;;;11.07;;
18072;SDS011;9161;47.348;9.648;2023-02-11T01:22:46;26.27;;;10.60;;
18072;SDS011;9161;47.348;9.648;2023-02-11T01:27:48;16.10;;;7.67;;
18072;SDS011;9161;47.348;9.648;2023-02-11T01:32:52;20.43;;;8.73;;
18072;SDS011;9161;47.348;9.648;2023-02-11T01:37:54;16.63;;;7.57;;
18072;SDS011;9161;47.348;9.648;2023-02-11T01:42:56;16.40;;;7.27;;
18072;SDS011;9161;47.348;9.648;2023-02-11T01:47:59;15.77;;;7.17;;
18072;SDS011;9161;47.348;9.648;2023-02-11T01:53:02;19.80;;;7.13;;
18072;SDS011;9161;47.348;9.648;2023-02-11T01:58:18;17.47;;;7.67;;
18072;SDS011;9161;47.348;9.648;2023-02-11T02:03:21;17.13;;;7.20;;
18072;SDS011;9161;47.348;9.648;2023-02-11T02:08:27;20.93;;;7.93;;
18072;SDS011;9161;47.348;9.648;2023-02-11T02:13:33;22.00;;;8.83;;
18072;SDS011;9161;47.348;9.648;2023-02-11T02:18:39;20.67;;;8.80;;
18072;SDS011;9161;47.348;9.648;2023-02-11T02:35:13;21.10;;;8.37;;
18072;SDS011;9161;47.348;9.648;2023-02-11T02:40:26;23.10;;;9.60;;
18072;SDS011;9161;47.348;9.648;2023-02-11T02:45:33;26.23;;;10.17;;
18072;SDS011;9161;47.348;9.648;2023-02-11T02:50:38;23.30;;;8.80;;
18072;SDS011;9161;47.348;9.648;2023-02-11T02:55:42;26.53;;;10.43;;
18072;SDS011;9161;47.348;9.648;2023-02-11T03:00:53;24.87;;;10.43;;
18072;SDS011;9161;47.348;9.648;2023-02-11T03:06:06;21.50;;;8.97;;
18072;SDS011;9161;47.348;9.648;2023-02-11T03:11:14;21.17;;;8.87;;
18072;SDS011;9161;47.348;9.648;2023-02-11T03:16:18;18.70;;;8.30;;
18072;SDS011;9161;47.348;9.648;2023-02-11T03:21:25;20.97;;;8.00;;
18072;SDS011;9161;47.348;9.648;2023-02-11T03:26:29;18.53;;;8.93;;
18072;SDS011;9161;47.348;9.648;2023-02-11T03:31:34;18.40;;;8.20;;
18072;SDS011;9161;47.348;9.648;2023-02-11T03:36:43;23.33;;;9.37;;
18072;SDS011;9161;47.348;9.648;2023-02-11T03:41:48;18.03;;;7.97;;
18072;SDS011;9161;47.348;9.648;2023-02-11T03:46:52;19.97;;;7.80;;
18072;SDS011;9161;47.348;9.648;2023-02-11T03:51:56;20.77;;;7.53;;
18072;SDS011;9161;47.348;9.648;2023-02-11T03:57:01;20.00;;;7.13;;
18072;SDS011;9161;47.348;9.648;2023-02-11T04:02:04;23.70;;;8.73;;
18072;SDS011;9161;47.348;9.648;2023-02-11T04:07:07;21.33;;;8.37;;
18072;SDS011;9161;47.348;9.648;2023-02-11T04:12:11;18.50;;;7.57;;
18072;SDS011;9161;47.348;9.648;2023-02-11T04:17:13;16.63;;;7.07;;
18072;SDS011;9161;47.348;9.648;2023-02-11T04:22:16;16.87;;;8.17;;
18072;SDS011;9161;47.348;9.648;2023-02-11T04:27:19;16.90;;;7.37;;
18072;SDS011;9161;47.348;9.648;2023-02-11T04:32:21;18.80;;;7.40;;
18072;SDS011;9161;47.348;9.648;2023-02-11T04:37:24;16.40;;;7.30;;
18072;SDS011;9161;47.348;9.648;2023-02-11T04:42:26;21.17;;;7.60;;
18072;SDS011;9161;47.348;9.648;2023-02-11T04:47:29;15.70;;;7.43;;
18072;SDS011;9161;47.348;9.648;2023-02-11T04:52:32;19.70;;;7.93;;
18072;SDS011;9161;47.348;9.648;2023-02-11T04:57:34;19.27;;;8.33;;
18072;SDS011;9161;47.348;9.648;2023-02-11T05:02:38;23.43;;;8.77;;
18072;SDS011;9161;47.348;9.648;2023-02-11T05:07:42;23.50;;;7.67;;
18072;SDS011;9161;47.348;9.648;2023-02-11T05:12:46;18.53;;;7.30;;
18072;SDS011;9161;47.348;9.648;2023-02-11T05:17:49;21.20;;;7.83;;
18072;SDS011;9161;47.348;9.648;2023-02-11T05:22:52;23.30;;;9.67;;
18072;SDS011;9161;47.348;9.648;2023-02-11T05:27:55;24.37;;;9.27;;
18072;SDS011;9161;47.348;9.648;2023-02-11T05:32:57;24.40;;;9.47;;
18072;SDS011;9161;47.348;9.648;2023-02-11T05:38:01;20.13;;;7.93;;
18072;SDS011;9161;47.348;9.648;2023-02-11T05:43:03;23.50;;;9.30;;
18072;SDS011;9161;47.348;9.648;2023-02-11T05:48:06;16.90;;;7.80;;
18072;SDS011;9161;47.348;9.648;2023-02-11T05:53:09;18.47;;;8.60;;
18072;SDS011;9161;47.348;9.648;2023-02-11T05:58:12;24.50;;;10.03;;
18072;SDS011;9161;47.348;9.648;2023-02-11T06:03:14;25.70;;;11.30;;
18072;SDS011;9161;47.348;9.648;2023-02-11T06:08:18;30.53;;;12.50;;
18072;SDS011;9161;47.348;9.648;2023-02-11T06:13:20;21.60;;;10.00;;
18072;SDS011;9161;47.348;9.648;2023-02-11T06:18:23;18.30;;;7.40;;
18072;SDS011;9161;47.348;9.648;2023-02-11T06:23:27;21.60;;;8.60;;
18072;SDS011;9161;47.348;9.648;2023-02-11T06:28:30;20.30;;;8.17;;
18072;SDS011;9161;47.348;9.648;2023-02-11T06:33:32;15.33;;;7.27;;
18072;SDS011;9161;47.348;9.648;2023-02-11T06:38:37;23.83;;;8.80;;
18072;SDS011;9161;47.348;9.648;2023-02-11T06:43:39;20.97;;;8.90;;
18072;SDS011;9161;47.348;9.648;2023-02-11T06:48:42;30.03;;;12.37;;
18072;SDS011;9161;47.348;9.648;2023-02-11T06:53:45;28.73;;;10.57;;
18072;SDS011;9161;47.348;9.648;2023-02-11T06:58:51;31.03;;;11.13;;
18072;SDS011;9161;47.348;9.648;2023-02-11T07:03:54;22.70;;;9.90;;
18072;SDS011;9161;47.348;9.648;2023-02-11T07:08:58;22.13;;;9.97;;
18072;SDS011;9161;47.348;9.648;2023-02-11T07:14:01;22.67;;;9.67;;
18072;SDS011;9161;47.348;9.648;2023-02-11T07:19:04;17.27;;;8.10;;
18072;SDS011;9161;47.348;9.648;2023-02-11T07:24:08;16.60;;;8.23;;
18072;SDS011;9161;47.348;9.648;2023-02-11T07:29:10;22.33;;;8.77;;
18072;SDS011;9161;47.348;9.648;2023-02-11T07:34:12;23.57;;;10.43;;
18072;SDS011;9161;47.348;9.648;2023-02-11T07:39:16;20.50;;;9.57;;
18072;SDS011;9161;47.348;9.648;2023-02-11T07:44:21;18.67;;;8.90;;
18072;SDS011;9161;47.348;9.648;2023-02-11T07:49:24;23.23;;;8.93;;
18072;SDS011;9161;47.348;9.648;2023-02-11T07:54:27;19.80;;;7.17;;
18072;SDS011;9161;47.348;9.648;2023-02-11T07:59:30;18.63;;;9.13;;
18072;SDS011;9161;47.348;9.648;2023-02-11T08:04:32;15.63;;;7.27;;
18072;SDS011;9161;47.348;9.648;2023-02-11T08:09:36;15.20;;;6.50;;
18072;SDS011;9161;47.348;9.648;2023-02-11T08:14:38;17.97;;;7.40;;
18072;SDS011;9161;47.348;9.648;2023-02-11T08:19:41;17.00;;;7.13;;
18072;SDS011;9161;47.348;9.648;2023-02-11T08:24:45;14.37;;;6.90;;
18072;SDS011;9161;47.348;9.648;2023-02-11T08:29:51;12.93;;;6.13;;
18072;SDS011;9161;47.348;9.648;2023-02-11T08:34:53;11.20;;;5.57;;
18072;SDS011;9161;47.348;9.648;2023-02-11T08:39:57;12.20;;;6.90;;
18072;SDS011;9161;47.348;9.648;2023-02-11T08:44:59;12.93;;;6.87;;
18072;SDS011;9161;47.348;9.648;2023-02-11T08:50:02;14.30;;;6.70;;
18072;SDS011;9161;47.348;9.648;2023-02-11T08:55:06;14.03;;;6.20;;
18072;SDS011;9161;47.348;9.648;2023-02-11T09:00:08;11.33;;;6.13;;
18072;SDS011;9161;47.348;9.648;2023-02-11T09:05:11;13.67;;;6.93;;
18072;SDS011;9161;47.348;9.648;2023-02-11T09:10:15;13.80;;;6.50;;
18072;SDS011;9161;47.348;9.648;2023-02-11T09:15:17;14.77;;;7.37;;
18072;SDS011;9161;47.348;9.648;2023-02-11T09:20:20;13.70;;;7.30;;
18072;SDS011;9161;47.348;9.648;2023-02-11T09:25:24;12.73;;;7.17;;
18072;SDS011;9161;47.348;9.648;2023-02-11T09:30:26;13.73;;;6.83;;
18072;SDS011;9161;47.348;9.648;2023-02-11T09:35:28;18.27;;;7.77;;
18072;SDS011;9161;47.348;9.648;2023-02-11T09:40:32;14.40;;;7.57;;
18072;SDS011;9161;47.348;9.648;2023-02-11T09:45:34;18.47;;;7.67;;
18072;SDS011;9161;47.348;9.648;2023-02-11T09:50:38;17.40;;;7.27;;
18072;SDS011;9161;47.348;9.648;2023-02-11T09:55:44;12.17;;;6.33;;
18072;SDS011;9161;47.348;9.648;2023-02-11T10:00:50;11.40;;;6.67;;
18072;SDS011;9161;47.348;9.648;2023-02-11T10:06:03;18.43;;;7.07;;
18072;SDS011;9161;47.348;9.648;2023-02-11T10:11:18;18.00;;;6.97;;
18072;SDS011;9161;47.348;9.648;2023-02-11T10:16:35;17.20;;;7.40;;
18072;SDS011;9161;47.348;9.648;2023-02-11T10:21:50;17.30;;;8.07;;
18072;SDS011;9161;47.348;9.648;2023-02-11T10:27:00;23.10;;;8.13;;
18072;SDS011;9161;47.348;9.648;2023-02-11T10:32:14;18.47;;;6.57;;
18072;SDS011;9161;47.348;9.648;2023-02-11T10:37:24;13.17;;;6.13;;
18072;SDS011;9161;47.348;9.648;2023-02-11T10:42:28;12.93;;;5.73;;
18072;SDS011;9161;47.348;9.648;2023-02-11T10:47:33;11.33;;;5.47;;
18072;SDS011;9161;47.348;9.648;2023-02-11T10:52:38;9.63;;;4.97;;
18072;SDS011;9161;47.348;9.648;2023-02-11T10:57:47;10.53;;;4.83;;
18072;SDS011;9161;47.348;9.648;2023-02-11T11:02:54;12.77;;;4.77;;
18072;SDS011;9161;47.348;9.648;2023-02-11T11:08:00;12.83;;;4.90;;
18072;SDS011;9161;47.348;9.648;2023-02-11T11:13:08;8.87;;;4.43;;
18072;SDS011;9161;47.348;9.648;2023-02-11T11:18:27;9.27;;;4.33;;
18072;SDS011;9161;47.348;9.648;2023-02-11T11:23:30;8.93;;;4.47;;
18072;SDS011;9161;47.348;9.648;2023-02-11T11:28:36;17.27;;;5.30;;
18072;SDS011;9161;47.348;9.648;2023-02-11T11:33:41;9.27;;;4.43;;
18072;SDS011;9161;47.348;9.648;2023-02-11T11:38:45;9.50;;;4.80;;
18072;SDS011;9161;47.348;9.648;2023-02-11T11:43:58;8.47;;;4.23;;
18072;SDS011;9161;47.348;9.648;2023-02-11T11:49:11;16.37;;;5.40;;
18072;SDS011;9161;47.348;9.648;2023-02-11T11:54:20;11.97;;;5.53;;
18072;SDS011;9161;47.348;9.648;2023-02-11T11:59:26;10.53;;;5.40;;
18072;SDS011;9161;47.348;9.648;2023-02-11T12:04:36;12.63;;;5.37;;
18072;SDS011;9161;47.348;9.648;2023-02-11T12:10:00;11.60;;;5.23;;
18072;SDS011;9161;47.348;9.648;2023-02-11T12:15:26;11.63;;;6.20;;
18072;SDS011;9161;47.348;9.648;2023-02-11T12:20:37;11.03;;;5.80;;
18072;SDS011;9161;47.348;9.648;2023-02-11T12:25:52;11.23;;;6.17;;
18072;SDS011;9161;47.348;9.648;2023-02-11T12:31:07;13.03;;;5.83;;
18072;SDS011;9161;47.348;9.648;2023-02-11T12:36:23;12.13;;;7.07;;
18072;SDS011;9161;47.348;9.648;2023-02-11T12:41:44;13.47;;;6.67;;
18072;SDS011;9161;47.348;9.648;2023-02-11T12:47:17;14.43;;;6.70;;
18072;SDS011;9161;47.348;9.648;2023-02-11T12:52:35;13.18;;;7.90;;
18072;SDS011;9161;47.348;9.648;2023-02-11T12:57:50;11.98;;;7.60;;
18072;SDS011;9161;47.348;9.648;2023-02-11T13:02:58;13.32;;;7.40;;
18072;SDS011;9161;47.348;9.648;2023-02-11T13:08:04;12.95;;;9.35;;
18072;SDS011;9161;47.348;9.648;2023-02-11T13:13:17;14.00;;;8.90;;
18072;SDS011;9161;47.348;9.648;2023-02-11T13:23:49;15.95;;;9.10;;
18072;SDS011;9161;47.348;9.648;2023-02-11T13:29:04;14.30;;;8.77;;
18072;SDS011;9161;47.348;9.648;2023-02-11T13:34:26;13.18;;;8.32;;
18072;SDS011;9161;47.348;9.648;2023-02-11T13:39:59;13.73;;;9.05;;
18072;SDS011;9161;47.348;9.648;2023-02-11T13:45:09;15.30;;;10.10;;
18072;SDS011;9161;47.348;9.648;2023-02-11T13:55:26;16.98;;;10.80;;
18072;SDS011;9161;47.348;9.648;2023-02-11T14:11:43;17.52;;;10.68;;
18072;SDS011;9161;47.348;9.648;2023-02-11T14:22:41;17.85;;;11.68;;
18072;SDS011;9161;47.348;9.648;2023-02-11T14:27:50;16.88;;;11.32;;
18072;SDS011;9161;47.348;9.648;2023-02-11T14:33:09;17.80;;;11.18;;
18072;SDS011;9161;47.348;9.648;2023-02-11T14:38:44;16.98;;;11.55;;
18072;SDS011;9161;47.348;9.648;2023-02-11T14:44:02;16.95;;;10.90;;
18072;SDS011;9161;47.348;9.648;2023-02-11T14:49:11;18.95;;;10.73;;
18072;SDS011;9161;47.348;9.648;2023-02-11T14:54:22;17.17;;;10.60;;
18072;SDS011;9161;47.348;9.648;2023-02-11T14:59:28;17.88;;;10.70;;
18072;SDS011;9161;47.348;9.648;2023-02-11T15:04:32;19.70;;;12.07;;
18072;SDS011;9161;47.348;9.648;2023-02-11T15:09:38;17.52;;;11.27;;
18072;SDS011;9161;47.348;9.648;2023-02-11T15:14:44;19.98;;;11.98;;
18072;SDS011;9161;47.348;9.648;2023-02-11T15:19:51;18.55;;;12.65;;
18072;SDS011;9161;47.348;9.648;2023-02-11T15:25:00;18.25;;;11.52;;
18072;SDS011;9161;47.348;9.648;2023-02-11T15:30:21;19.80;;;11.83;;
18072;SDS011;9161;47.348;9.648;2023-02-11T15:35:27;18.97;;;11.17;;
18072;SDS011;9161;47.348;9.648;2023-02-11T15:40:32;22.77;;;11.47;;
18072;SDS011;9161;47.348;9.648;2023-02-11T15:45:38;20.80;;;11.20;;
18072;SDS011;9161;47.348;9.648;2023-02-11T15:50:47;22.23;;;12.30;;
18072;SDS011;9161;47.348;9.648;2023-02-11T15:55:56;20.27;;;10.47;;
18072;SDS011;9161;47.348;9.648;2023-02-11T16:01:14;23.97;;;11.53;;
18072;SDS011;9161;47.348;9.648;2023-02-11T16:06:26;27.97;;;11.70;;
18072;SDS011;9161;47.348;9.648;2023-02-11T16:11:53;35.27;;;12.17;;
18072;SDS011;9161;47.348;9.648;2023-02-11T16:17:03;25.40;;;12.00;;
18072;SDS011;9161;47.348;9.648;2023-02-11T16:22:09;27.47;;;11.27;;
18072;SDS011;9161;47.348;9.648;2023-02-11T16:27:18;29.13;;;11.83;;
18072;SDS011;9161;47.348;9.648;2023-02-11T16:32:26;24.83;;;11.43;;
18072;SDS011;9161;47.348;9.648;2023-02-11T16:37:32;32.83;;;12.10;;
18072;SDS011;9161;47.348;9.648;2023-02-11T16:42:39;35.30;;;13.60;;
18072;SDS011;9161;47.348;9.648;2023-02-11T16:47:44;33.73;;;14.63;;
18072;SDS011;9161;47.348;9.648;2023-02-11T16:52:48;31.83;;;13.67;;
18072;SDS011;9161;47.348;9.648;2023-02-11T16:57:51;33.47;;;14.40;;
18072;SDS011;9161;47.348;9.648;2023-02-11T17:02:56;30.97;;;13.67;;
18072;SDS011;9161;47.348;9.648;2023-02-11T17:08:02;34.47;;;13.63;;
18072;SDS011;9161;47.348;9.648;2023-02-11T17:13:05;40.20;;;17.70;;
18072;SDS011;9161;47.348;9.648;2023-02-11T17:18:10;42.47;;;18.23;;
18072;SDS011;9161;47.348;9.648;2023-02-11T17:23:14;38.20;;;16.43;;
18072;SDS011;9161;47.348;9.648;2023-02-11T17:28:19;39.90;;;16.00;;
18072;SDS011;9161;47.348;9.648;2023-02-11T17:33:27;35.10;;;15.13;;
18072;SDS011;9161;47.348;9.648;2023-02-11T17:38:36;30.73;;;14.23;;
18072;SDS011;9161;47.348;9.648;2023-02-11T17:43:41;37.67;;;14.63;;
18072;SDS011;9161;47.348;9.648;2023-02-11T17:48:50;33.73;;;14.60;;
18072;SDS011;9161;47.348;9.648;2023-02-11T17:53:53;34.67;;;13.83;;
18072;SDS011;9161;47.348;9.648;2023-02-11T17:59:00;29.57;;;13.87;;
18072;SDS011;9161;47.348;9.648;2023-02-11T18:04:06;38.93;;;17.40;;
18072;SDS011;9161;47.348;9.648;2023-02-11T18:09:17;41.90;;;17.60;;
18072;SDS011;9161;47.348;9.648;2023-02-11T18:14:24;40.57;;;17.23;;
18072;SDS011;9161;47.348;9.648;2023-02-11T18:19:30;38.07;;;16.67;;
18072;SDS011;9161;47.348;9.648;2023-02-11T18:24:36;39.83;;;15.57;;
18072;SDS011;9161;47.348;9.648;2023-02-11T18:29:39;34.43;;;14.77;;
18072;SDS011;9161;47.348;9.648;2023-02-11T18:34:46;32.73;;;14.73;;
18072;SDS011;9161;47.348;9.648;2023-02-11T18:39:50;32.07;;;13.87;;
18072;SDS011;9161;47.348;9.648;2023-02-11T18:44:54;34.23;;;15.50;;
18072;SDS011;9161;47.348;9.648;2023-02-11T18:49:58;38.73;;;15.60;;
18072;SDS011;9161;47.348;9.648;2023-02-11T18:55:05;35.67;;;14.83;;
18072;SDS011;9161;47.348;9.648;2023-02-11T19:00:13;37.03;;;15.13;;
18072;SDS011;9161;47.348;9.648;2023-02-11T19:05:19;36.83;;;16.17;;
18072;SDS011;9161;47.348;9.648;2023-02-11T19:10:23;35.07;;;15.23;;
18072;SDS011;9161;47.348;9.648;2023-02-11T19:15:27;44.30;;;17.93;;
18072;SDS011;9161;47.348;9.648;2023-02-11T19:20:31;40.57;;;18.13;;
18072;SDS011;9161;47.348;9.648;2023-02-11T19:25:35;45.73;;;19.40;;
18072;SDS011;9161;47.348;9.648;2023-02-11T19:30:40;47.30;;;19.33;;
18072;SDS011;9161;47.348;9.648;2023-02-11T19:35:46;70.67;;;24.50;;
18072;SDS011;9161;47.348;9.648;2023-02-11T19:40:54;66.40;;;26.23;;
18072;SDS011;9161;47.348;9.648;2023-02-11T19:45:59;75.90;;;26.33;;
18072;SDS011;9161;47.348;9.648;2023-02-11T19:51:08;73.63;;;26.37;;
18072;SDS011;9161;47.348;9.648;2023-02-11T19:56:13;88.30;;;31.80;;
18072;SDS011;9161;47.348;9.648;2023-02-11T20:01:20;79.37;;;28.87;;
18072;SDS011;9161;47.348;9.648;2023-02-11T20:06:28;69.70;;;25.60;;
18072;SDS011;9161;47.348;9.648;2023-02-11T20:11:33;51.07;;;21.43;;
18072;SDS011;9161;47.348;9.648;2023-02-11T20:16:37;52.13;;;21.93;;
18072;SDS011;9161;47.348;9.648;2023-02-11T20:21:50;45.97;;;19.70;;
18072;SDS011;9161;47.348;9.648;2023-02-11T20:26:56;49.37;;;21.53;;
18072;SDS011;9161;47.348;9.648;2023-02-11T20:32:01;50.67;;;20.37;;
18072;SDS011;9161;47.348;9.648;2023-02-11T20:37:06;46.67;;;19.87;;
18072;SDS011;9161;47.348;9.648;2023-02-11T20:42:21;46.00;;;18.80;;
18072;SDS011;9161;47.348;9.648;2023-02-11T20:47:26;52.30;;;20.40;;
18072;SDS011;9161;47.348;9.648;2023-02-11T20:52:31;32.40;;;15.30;;
18072;SDS011;9161;47.348;9.648;2023-02-11T20:57:37;36.63;;;14.73;;
18072;SDS011;9161;47.348;9.648;2023-02-11T21:02:42;28.53;;;12.83;;
18072;SDS011;9161;47.348;9.648;2023-02-11T21:07:48;28.03;;;12.37;;
18072;SDS011;9161;47.348;9.648;2023-02-11T21:12:52;24.27;;;11.23;;
18072;SDS011;9161;47.348;9.648;2023-02-11T21:17:55;28.00;;;12.77;;
18072;SDS011;9161;47.348;9.648;2023-02-11T21:23:01;30.33;;;14.43;;
18072;SDS011;9161;47.348;9.648;2023-02-11T21:28:05;31.73;;;14.83;;
18072;SDS011;9161;47.348;9.648;2023-02-11T21:33:10;37.40;;;15.33;;
18072;SDS011;9161;47.348;9.648;2023-02-11T21:38:14;41.40;;;15.30;;
18072;SDS011;9161;47.348;9.648;2023-02-11T21:43:18;39.53;;;17.47;;
18072;SDS011;9161;47.348;9.648;2023-02-11T21:48:25;32.10;;;12.90;;
18072;SDS011;9161;47.348;9.648;2023-02-11T21:53:30;28.40;;;12.37;;
18072;SDS011;9161;47.348;9.648;2023-02-11T21:58:34;27.23;;;12.13;;
18072;SDS011;9161;47.348;9.648;2023-02-11T22:03:37;24.60;;;10.87;;
18072;SDS011;9161;47.348;9.648;2023-02-11T22:08:44;23.37;;;11.07;;
18072;SDS011;9161;47.348;9.648;2023-02-11T22:13:47;23.47;;;10.90;;
18072;SDS011;9161;47.348;9.648;2023-02-11T22:18:55;28.67;;;11.67;;
18072;SDS011;9161;47.348;9.648;2023-02-11T22:23:59;28.67;;;12.07;;
18072;SDS011;9161;47.348;9.648;2023-02-11T22:29:02;33.00;;;13.03;;
18072;SDS011;9161;47.348;9.648;2023-02-11T22:34:05;29.73;;;13.40;;
18072;SDS011;9161;47.348;9.648;2023-02-11T22:39:09;32.70;;;13.97;;
18072;SDS011;9161;47.348;9.648;2023-02-11T22:44:14;40.27;;;17.17;;
18072;SDS011;9161;47.348;9.648;2023-02-11T22:49:18;39.97;;;17.67;;
18072;SDS011;9161;47.348;9.648;2023-02-11T22:54:23;31.87;;;14.57;;
18072;SDS011;9161;47.348;9.648;2023-02-11T22:59:25;37.47;;;16.63;;
18072;SDS011;9161;47.348;9.648;2023-02-11T23:04:27;37.67;;;16.57;;
18072;SDS011;9161;47.348;9.648;2023-02-11T23:09:31;36.90;;;15.90;;
18072;SDS011;9161;47.348;9.648;2023-02-11T23:14:33;39.33;;;16.70;;
18072;SDS011;9161;47.348;9.648;2023-02-11T23:19:35;37.73;;;17.03;;
18072;SDS011;9161;47.348;9.648;2023-02-11T23:24:39;37.13;;;16.90;;
18072;SDS011;9161;47.348;9.648;2023-02-11T23:29:41;46.60;;;20.53;;
18072;SDS011;9161;47.348;9.648;2023-02-11T23:34:43;42.30;;;17.47;;
18072;SDS011;9161;47.348;9.648;2023-02-11T23:39:47;47.33;;;18.00;;
18072;SDS011;9161;47.348;9.648;2023-02-11T23:44:49;40.03;;;16.57;;
18072;SDS011;9161;47.348;9.648;2023-02-11T23:49:51;37.23;;;16.53;;
18072;SDS011;9161;47.348;9.648;2023-02-11T23:54:55;35.00;;;16.00;;
18072;SDS011;9161;47.348;9.648;2023-02-11T23:59:57;34.13;;;15.40;;
